X  Fechar Dados meteorológicos de METAR da aviação     LYNI Nis Airport
Temperatura
3°C Temperatura
2°C Ponto de orvalho
93% Umidade



Vento
0 KM/H
0 MPH
0 M/S
0 NÓS



Calmo
N
Condições atuais

Nuvens esparsas Nuvens esparsas
Pressão 1028.92 (hPa) - 30.38 (inHg)
Visibilidade 5 (milha) - 8 (km)
Aeroporto
Código do aeroporto LYNI

Localização: Nis Airport
Distância: 63 (km)

Metar:
LYNI 270600Z 00000KT 8000 SCT008 BKN012 03/02 Q1029 NOSIG

Hora: 27-11-2022 07:00 CET